Pays
Station

 

Conditions  météo  pour  Mansfield, Mansfield Lahm Municipal Airport  -  Etats-Unis    Etats-Unis

  
-14 °C
    
 
 

METAR pour Mansfield, Mansfield Lahm Municipal Airport :

KMFD 212152Z AUTO 31003KT 10SM CLR M14/M21 A3051 RMK AO2 SLP366 T11441206

 

Voici le bulletin pour Mansfield, Mansfield Lahm Municipal Airport - Etats-Unis.
 
Le bulletin a été fait il y a une heure et 1 minutes, à 21:52 UTC .
Le vent soufflait à la vitesse de 1.5 mètres par seconde de Nord-ouest (310°).
 
La température était de -14 °C, avec un point de rosée à -21 °C.
La température ressentie était de -17 °C.
 
La pression atmosphérique était de 1033 hPa.
L'humidité relative était de 55.2%.
 
Le ciel était clair.
 
La visibilité globale était de 16.1 kilomètres.
 

 
 
 

Pays :   A   B   C   D   E   F   G   H   I   J   K   L   M   N   O   P   Q   R   S   T   U   V   W   Y   Z

 

Partenaires :  Info Météo avec Met'info
Météo Marine avec MeteoMarine.net
Infos Site  |  Infos Légales  |  Crédits  |  Confidentialité
Contactez-nous  |  Ajouter aux favoris
© 2013-2019 METAR - Tous droits réservés